createdAt,value
2022-12-05T00:02:16.678Z,96.91
2022-12-05T00:04:45.901Z,96.60
2022-12-05T00:07:14.927Z,96.06
2022-12-05T00:09:44.433Z,96.44
2022-12-05T00:12:13.634Z,95.77
2022-12-05T00:14:42.524Z,95.60
2022-12-05T00:17:13.365Z,95.75
2022-12-05T00:19:42.664Z,95.59
2022-12-05T00:22:11.506Z,95.85
2022-12-05T00:24:41.060Z,95.32
2022-12-05T00:27:12.508Z,95.72
2022-12-05T00:29:41.815Z,94.91
2022-12-05T00:32:12.673Z,95.56
2022-12-05T00:34:42.055Z,94.93
2022-12-05T00:37:11.253Z,95.21
2022-12-05T00:39:40.457Z,94.31
2022-12-05T00:42:09.448Z,94.20
2022-12-05T00:44:38.750Z,94.95
2022-12-05T00:47:07.846Z,94.08
2022-12-05T00:49:38.478Z,94.62
2022-12-05T00:52:07.206Z,94.08
2022-12-05T00:54:40.357Z,93.94
2022-12-05T00:57:09.454Z,93.94
2022-12-05T00:59:38.449Z,94.09
2022-12-05T01:02:10.207Z,93.93
2022-12-05T01:04:42.580Z,94.38
2022-12-05T01:07:11.679Z,95.13
2022-12-05T01:09:40.518Z,94.29
2022-12-05T01:12:09.770Z,94.11
2022-12-05T01:14:39.121Z,94.91
2022-12-05T01:17:07.928Z,95.61
2022-12-05T01:19:36.957Z,95.90
2022-12-05T01:22:07.593Z,95.29
2022-12-05T01:24:36.685Z,95.39
2022-12-05T01:27:05.942Z,93.84
2022-12-05T01:29:34.939Z,93.12
2022-12-05T01:32:04.642Z,94.01
2022-12-05T01:34:33.995Z,93.14
2022-12-05T01:37:02.892Z,93.20
2022-12-05T01:39:33.233Z,93.42
2022-12-05T01:42:02.408Z,93.27
2022-12-05T01:45:06.132Z,93.06
2022-12-05T01:47:38.975Z,92.48
2022-12-05T01:50:17.112Z,92.97
2022-12-05T01:52:46.001Z,91.73
2022-12-05T01:55:18.175Z,91.92
2022-12-05T01:57:48.203Z,91.52
2022-12-05T02:00:19.849Z,92.04
2022-12-05T02:02:55.247Z,92.39
2022-12-05T02:05:27.864Z,91.64
2022-12-05T02:08:00.780Z,93.24
2022-12-05T02:10:35.585Z,94.22
2022-12-05T02:13:13.061Z,94.71
2022-12-05T02:15:45.458Z,93.96
2022-12-05T02:18:27.435Z,93.70
2022-12-05T02:21:12.523Z,94.10
2022-12-05T02:24:07.376Z,94.18
2022-12-05T02:27:01.917Z,93.83
2022-12-05T02:30:06.546Z,94.29
2022-12-05T02:32:46.917Z,93.13
2022-12-05T02:35:25.634Z,93.00
2022-12-05T02:38:03.973Z,93.21
2022-12-05T02:40:35.710Z,92.69
2022-12-05T02:43:08.802Z,93.08
2022-12-05T02:45:40.403Z,93.54
2022-12-05T02:48:11.285Z,94.02
2022-12-05T02:50:40.894Z,93.89
2022-12-05T02:53:13.040Z,93.37
2022-12-05T02:55:42.550Z,93.75
2022-12-05T02:58:16.285Z,93.69
2022-12-05T03:00:50.190Z,93.92
2022-12-05T03:03:21.123Z,93.50
2022-12-05T03:05:55.383Z,94.02
2022-12-05T03:08:28.224Z,93.79
2022-12-05T03:10:58.119Z,94.46
2022-12-05T03:13:29.497Z,94.47
2022-12-05T03:16:04.630Z,95.15
2022-12-05T03:18:38.024Z,95.44
2022-12-05T03:21:12.446Z,95.98
2022-12-05T03:23:46.717Z,95.42
2022-12-05T03:26:23.543Z,95.05
2022-12-05T03:29:22.738Z,95.34
2022-12-05T03:31:59.915Z,95.51
2022-12-05T03:34:36.890Z,95.83
2022-12-05T03:37:09.496Z,96.13
2022-12-05T03:39:39.703Z,96.02
2022-12-05T03:42:14.342Z,95.97
2022-12-05T03:44:48.755Z,95.84
2022-12-05T03:47:22.364Z,96.30
2022-12-05T03:49:53.509Z,96.05
2022-12-05T03:52:26.803Z,96.01
2022-12-05T03:54:58.650Z,96.35
2022-12-05T03:57:29.929Z,96.50
2022-12-05T04:00:01.316Z,96.43
2022-12-05T04:02:35.972Z,96.07
2022-12-05T04:05:08.852Z,96.34
2022-12-05T04:07:40.432Z,95.90
2022-12-05T04:10:27.852Z,96.15
2022-12-05T04:12:58.081Z,96.42
2022-12-05T04:15:50.014Z,96.50
2022-12-05T04:18:19.410Z,96.79
2022-12-05T04:21:06.966Z,96.87
2022-12-05T04:23:35.929Z,96.31
2022-12-05T04:26:09.297Z,96.17
2022-12-05T04:28:40.765Z,96.53
2022-12-05T04:31:12.809Z,97.07
2022-12-05T04:33:45.529Z,97.21
2022-12-05T04:36:15.357Z,96.55
2022-12-05T04:38:46.628Z,97.42
2022-12-05T04:41:17.562Z,97.66
2022-12-05T04:43:47.163Z,97.54
2022-12-05T04:46:17.792Z,96.97
2022-12-05T04:48:51.489Z,96.78
2022-12-05T04:51:22.300Z,97.14
2022-12-05T04:53:54.674Z,97.33
2022-12-05T04:56:23.695Z,96.88
2022-12-05T04:58:51.732Z,96.77
2022-12-05T05:01:24.222Z,96.08
2022-12-05T05:03:56.666Z,95.90
2022-12-05T05:06:24.789Z,96.29
2022-12-05T05:08:54.184Z,96.41
2022-12-05T05:11:24.512Z,96.32
2022-12-05T05:13:52.838Z,96.65
2022-12-05T05:16:22.776Z,97.01
2022-12-05T05:18:51.436Z,96.66
2022-12-05T05:21:22.736Z,97.17
2022-12-05T05:23:51.037Z,96.57
2022-12-05T05:26:19.699Z,96.44
2022-12-05T05:28:48.333Z,96.16
2022-12-05T05:31:16.756Z,96.52
2022-12-05T05:33:44.907Z,96.46
2022-12-05T05:36:14.844Z,96.38
2022-12-05T05:38:46.087Z,96.86
2022-12-05T05:41:15.314Z,96.86
2022-12-05T05:43:43.925Z,97.15
2022-12-05T05:46:12.523Z,97.21
2022-12-05T05:48:40.593Z,96.89
2022-12-05T05:51:10.627Z,97.44
2022-12-05T05:53:39.395Z,96.79
2022-12-05T05:56:10.546Z,96.57
2022-12-05T05:58:38.855Z,96.57
2022-12-05T06:01:08.111Z,96.49
2022-12-05T06:03:36.721Z,96.77
2022-12-05T06:06:07.135Z,97.56
2022-12-05T06:08:36.641Z,97.50
2022-12-05T06:11:06.248Z,97.44
2022-12-05T06:13:35.640Z,96.91
2022-12-05T06:16:05.681Z,97.22
2022-12-05T06:18:33.774Z,96.50
2022-12-05T06:21:01.850Z,96.61
2022-12-05T06:23:29.980Z,96.33
2022-12-05T06:25:58.141Z,95.72
2022-12-05T06:28:27.343Z,96.04
2022-12-05T06:30:56.764Z,95.78
2022-12-05T06:33:24.789Z,95.93
2022-12-05T06:36:03.553Z,95.66
2022-12-05T06:38:58.077Z,95.76
2022-12-05T06:41:26.243Z,96.07
2022-12-05T06:44:01.430Z,95.82
2022-12-05T06:46:31.237Z,95.85
2022-12-05T06:48:59.866Z,96.04
2022-12-05T06:51:28.003Z,95.45
2022-12-05T06:54:03.410Z,95.40
2022-12-05T06:56:50.296Z,95.97
2022-12-05T06:59:37.894Z,95.47
2022-12-05T07:02:24.952Z,95.54
2022-12-05T07:05:04.604Z,95.84
2022-12-05T07:07:42.730Z,95.42
2022-12-05T07:10:36.103Z,95.68
2022-12-05T07:13:33.073Z,94.74
2022-12-05T07:16:42.720Z,94.98
2022-12-05T07:19:31.453Z,94.56
2022-12-05T07:22:16.627Z,94.16
2022-12-05T07:25:04.474Z,93.86
2022-12-05T07:27:49.295Z,94.40
2022-12-05T07:30:20.548Z,94.10
2022-12-05T07:32:48.714Z,94.78
2022-12-05T07:35:18.879Z,94.66
2022-12-05T07:37:47.146Z,94.18
2022-12-05T07:40:15.911Z,95.00
2022-12-05T07:42:44.017Z,94.30
2022-12-05T07:45:12.659Z,93.92
2022-12-05T07:47:40.793Z,94.94
2022-12-05T07:50:09.391Z,94.47
2022-12-05T07:52:38.984Z,93.66
2022-12-05T07:55:08.229Z,94.48
2022-12-05T07:58:01.899Z,94.60
2022-12-05T08:00:30.010Z,94.22
2022-12-05T08:02:58.179Z,93.30
2022-12-05T08:05:26.424Z,93.37
2022-12-05T08:07:55.950Z,93.50
2022-12-05T08:10:24.190Z,93.92
2022-12-05T08:12:52.631Z,93.16
2022-12-05T08:15:20.752Z,93.39
2022-12-05T08:17:48.914Z,93.21
2022-12-05T08:20:17.184Z,93.95
2022-12-05T08:22:45.307Z,93.32
2022-12-05T08:25:14.705Z,93.00
2022-12-05T08:27:42.768Z,93.55
2022-12-05T08:30:10.993Z,93.35
2022-12-05T08:32:39.018Z,93.38
2022-12-05T08:35:07.456Z,92.96
2022-12-05T08:37:35.526Z,93.08
2022-12-05T08:40:03.740Z,92.07
2022-12-05T08:42:33.223Z,92.23
2022-12-05T08:45:01.381Z,92.22
2022-12-05T08:47:32.301Z,92.42
2022-12-05T08:50:00.845Z,92.97
2022-12-05T08:52:29.095Z,92.29
2022-12-05T08:54:57.572Z,92.69
2022-12-05T08:57:25.820Z,91.83
2022-12-05T08:59:55.363Z,91.88
2022-12-05T09:02:23.517Z,91.95
2022-12-05T09:04:54.030Z,92.76
2022-12-05T09:07:22.455Z,92.65
2022-12-05T09:09:50.544Z,91.89
2022-12-05T09:12:18.703Z,91.95
2022-12-05T09:14:46.792Z,92.16
2022-12-05T09:17:16.337Z,92.37
2022-12-05T09:19:45.127Z,92.29
2022-12-05T09:22:13.211Z,93.55
2022-12-05T09:24:41.261Z,92.24
2022-12-05T09:27:09.318Z,92.60
2022-12-05T09:29:37.435Z,93.14
2022-12-05T09:32:06.124Z,92.71
2022-12-05T09:34:35.993Z,93.31
2022-12-05T09:37:23.168Z,93.28
2022-12-05T09:39:53.025Z,93.02
2022-12-05T09:42:31.971Z,92.90
2022-12-05T09:45:27.133Z,92.61
2022-12-05T09:48:01.118Z,93.68
2022-12-05T09:50:32.279Z,93.00
2022-12-05T09:53:06.594Z,93.07
2022-12-05T09:55:47.093Z,93.44
2022-12-05T09:58:23.230Z,92.35
2022-12-05T10:01:24.547Z,93.06
2022-12-05T10:04:09.070Z,93.09
2022-12-05T10:06:42.060Z,93.46
2022-12-05T10:09:21.294Z,93.05
2022-12-05T10:11:54.278Z,92.63
2022-12-05T10:14:29.567Z,93.90
2022-12-05T10:16:59.358Z,92.75
2022-12-05T10:19:30.388Z,92.54
2022-12-05T10:22:03.669Z,92.54
2022-12-05T10:24:35.240Z,92.75
2022-12-05T10:27:06.764Z,92.81
2022-12-05T10:29:36.835Z,92.56
2022-12-05T10:32:08.866Z,92.21
2022-12-05T10:34:40.678Z,92.25
2022-12-05T10:37:17.366Z,92.65
2022-12-05T10:39:46.016Z,92.55
2022-12-05T10:42:16.815Z,93.26
2022-12-05T10:44:45.018Z,92.66
2022-12-05T10:47:13.818Z,93.23
2022-12-05T10:49:42.248Z,94.25
2022-12-05T10:52:10.930Z,93.68
2022-12-05T10:54:44.467Z,93.37
2022-12-05T10:57:23.116Z,92.83
2022-12-05T10:59:51.422Z,94.27
2022-12-05T11:02:24.849Z,94.58
2022-12-05T11:04:53.581Z,95.13
2022-12-05T11:07:32.110Z,94.27
2022-12-05T11:10:03.167Z,94.58
2022-12-05T11:12:37.997Z,93.40
2022-12-05T11:15:11.827Z,94.14
2022-12-05T11:17:41.074Z,93.20
2022-12-05T11:20:39.405Z,92.99
2022-12-05T11:23:25.495Z,93.70
2022-12-05T11:25:55.622Z,93.79
2022-12-05T11:28:35.402Z,93.22
2022-12-05T11:31:06.097Z,93.13
2022-12-05T11:33:35.631Z,92.91
2022-12-05T11:36:13.042Z,93.11
2022-12-05T11:38:42.680Z,93.68
2022-12-05T11:41:21.426Z,93.02
2022-12-05T11:44:02.490Z,93.81
2022-12-05T11:46:36.666Z,93.66
2022-12-05T11:49:16.561Z,93.31
2022-12-05T11:51:50.428Z,94.08
2022-12-05T11:55:03.913Z,94.46
2022-12-05T11:57:52.910Z,94.21
2022-12-05T12:00:24.543Z,94.94
2022-12-05T12:03:18.854Z,94.83
2022-12-05T12:05:54.732Z,95.49
2022-12-05T12:08:25.382Z,95.38
2022-12-05T12:11:20.210Z,95.23
2022-12-05T12:13:58.708Z,94.62
2022-12-05T12:16:35.229Z,94.95
2022-12-05T12:19:21.189Z,95.03
2022-12-05T12:22:10.463Z,95.48
2022-12-05T12:24:54.130Z,95.68
2022-12-05T12:27:31.112Z,95.08
2022-12-05T12:30:05.028Z,95.69
2022-12-05T12:32:36.839Z,94.94
2022-12-05T12:35:18.941Z,95.48
2022-12-05T12:37:56.502Z,94.88
2022-12-05T12:40:29.284Z,96.02
2022-12-05T12:43:05.994Z,95.08
2022-12-05T12:45:50.863Z,94.69
2022-12-05T12:48:33.814Z,94.81
2022-12-05T12:51:03.028Z,95.08
2022-12-05T12:53:52.775Z,95.15
2022-12-05T12:56:36.803Z,95.97
2022-12-05T12:59:16.473Z,95.59
2022-12-05T13:01:49.690Z,95.65
2022-12-05T13:04:20.530Z,94.87
2022-12-05T13:06:50.774Z,94.87
2022-12-05T13:09:22.656Z,95.12
2022-12-05T13:11:51.874Z,96.20
2022-12-05T13:14:24.809Z,96.77
2022-12-05T13:16:56.274Z,96.35
2022-12-05T13:19:29.052Z,96.29
2022-12-05T13:21:59.755Z,96.45
2022-12-05T13:24:29.513Z,96.57
2022-12-05T13:27:00.528Z,97.09
2022-12-05T13:29:32.709Z,97.08
2022-12-05T13:32:03.385Z,97.86
2022-12-05T13:34:46.514Z,97.13
2022-12-05T13:37:38.550Z,97.31
2022-12-05T13:40:50.132Z,97.79
2022-12-05T13:43:20.823Z,98.41
2022-12-05T13:46:02.154Z,98.64
2022-12-05T13:48:33.994Z,98.62
2022-12-05T13:51:05.572Z,98.47
2022-12-05T13:53:38.344Z,99.11
2022-12-05T13:56:13.632Z,99.74
2022-12-05T13:58:48.652Z,98.86
2022-12-05T14:01:55.307Z,99.50
2022-12-05T14:04:50.614Z,99.75
2022-12-05T14:07:40.390Z,99.69
2022-12-05T14:10:09.621Z,98.65
2022-12-05T14:12:59.626Z,98.21
2022-12-05T14:15:30.402Z,98.52
2022-12-05T14:18:01.834Z,98.33
2022-12-05T14:20:39.311Z,97.52
2022-12-05T14:23:21.568Z,97.33
2022-12-05T14:26:05.692Z,98.51
2022-12-05T14:29:54.029Z,98.17
2022-12-05T14:32:25.352Z,98.50
2022-12-05T14:34:59.113Z,98.04
2022-12-05T14:37:30.146Z,97.12
2022-12-05T14:40:01.406Z,97.56
2022-12-05T14:42:38.998Z,98.25
2022-12-05T14:45:31.517Z,98.20
2022-12-05T14:48:01.351Z,97.54
2022-12-05T14:50:43.789Z,97.43
2022-12-05T14:53:33.363Z,96.77
2022-12-05T14:56:13.380Z,97.02
2022-12-05T14:58:44.653Z,96.55
2022-12-05T15:01:17.993Z,97.23
2022-12-05T15:04:01.588Z,95.94
2022-12-05T15:06:30.418Z,96.18
2022-12-05T15:09:21.131Z,96.47
2022-12-05T15:11:48.971Z,96.77
2022-12-05T15:14:21.190Z,96.87
2022-12-05T15:16:52.011Z,97.31
2022-12-05T15:19:23.227Z,97.98
2022-12-05T15:21:56.159Z,96.98
2022-12-05T15:24:24.258Z,98.08
2022-12-05T15:26:54.797Z,98.20
2022-12-05T15:29:26.758Z,97.44
2022-12-05T15:32:20.369Z,97.73
2022-12-05T15:34:53.030Z,97.57
2022-12-05T15:37:25.810Z,96.82
2022-12-05T15:39:56.150Z,96.54
2022-12-05T15:42:30.020Z,96.71
2022-12-05T15:45:13.610Z,96.04
2022-12-05T15:47:42.478Z,96.66
2022-12-05T15:50:14.085Z,96.11
2022-12-05T15:52:45.009Z,96.01
2022-12-05T15:55:15.322Z,96.09
2022-12-05T15:57:48.910Z,95.16
2022-12-05T16:00:18.502Z,95.06
2022-12-05T16:02:48.238Z,94.84
2022-12-05T16:05:21.286Z,95.15
2022-12-05T16:07:50.597Z,95.63
2022-12-05T16:10:23.398Z,95.96
2022-12-05T16:12:55.649Z,95.85
2022-12-05T16:15:26.257Z,96.53
2022-12-05T16:17:55.847Z,96.00
2022-12-05T16:20:31.596Z,95.69
2022-12-05T16:23:02.233Z,95.67
2022-12-05T16:25:31.865Z,95.66
2022-12-05T16:28:04.488Z,95.63
2022-12-05T16:30:33.080Z,96.15
2022-12-05T16:33:04.404Z,95.91
2022-12-05T16:35:38.054Z,97.19
2022-12-05T16:38:14.709Z,97.19
2022-12-05T16:40:53.105Z,97.68
2022-12-05T16:43:29.166Z,97.55
2022-12-05T16:45:59.652Z,97.56
2022-12-05T16:48:28.662Z,97.56
2022-12-05T16:51:17.673Z,98.83
2022-12-05T16:53:47.718Z,98.89
2022-12-05T16:56:17.416Z,98.07
2022-12-05T16:58:47.192Z,99.26
2022-12-05T17:01:18.764Z,99.43
2022-12-05T17:03:47.015Z,99.50
2022-12-05T17:06:15.830Z,99.72
2022-12-05T17:08:43.894Z,99.38
2022-12-05T17:11:16.073Z,98.85
2022-12-05T17:13:45.249Z,98.04
2022-12-05T17:16:14.775Z,97.81
2022-12-05T17:18:42.987Z,98.11
2022-12-05T17:21:15.751Z,98.44
2022-12-05T17:23:47.717Z,97.64
2022-12-05T17:26:18.623Z,98.25
2022-12-05T17:28:46.883Z,97.51
2022-12-05T17:31:17.881Z,98.03
2022-12-05T17:33:46.200Z,98.62
2022-12-05T17:36:14.803Z,98.22
2022-12-05T17:38:43.428Z,97.74
2022-12-05T17:41:15.927Z,98.78
2022-12-05T17:43:44.231Z,98.88
2022-12-05T17:46:13.003Z,98.34
2022-12-05T17:48:42.624Z,97.88
2022-12-05T17:51:13.051Z,98.17
2022-12-05T17:53:41.286Z,98.00
2022-12-05T17:56:10.047Z,97.93
2022-12-05T17:58:38.081Z,97.69
2022-12-05T18:01:06.514Z,98.99
2022-12-05T18:03:34.892Z,98.73
2022-12-05T18:06:06.304Z,98.91
2022-12-05T18:08:39.506Z,99.45
2022-12-05T18:11:07.918Z,98.61
2022-12-05T18:13:36.272Z,98.76
2022-12-05T18:16:05.054Z,98.88
2022-12-05T18:18:33.200Z,99.35
2022-12-05T18:21:07.945Z,99.06
2022-12-05T18:23:37.300Z,99.27
2022-12-05T18:26:06.079Z,99.38
2022-12-05T18:28:35.707Z,98.29
2022-12-05T18:31:08.061Z,99.68
2022-12-05T18:33:39.474Z,99.70
2022-12-05T18:36:15.536Z,98.99
2022-12-05T18:38:43.781Z,98.56
2022-12-05T18:41:11.808Z,99.40
2022-12-05T18:43:40.522Z,98.62
2022-12-05T18:46:08.664Z,99.63
2022-12-05T18:48:42.616Z,98.46
2022-12-05T18:51:16.801Z,98.92
2022-12-05T18:53:51.712Z,98.40
2022-12-05T18:56:23.291Z,99.36
2022-12-05T18:58:55.756Z,98.54
2022-12-05T19:01:24.292Z,98.79
2022-12-05T19:03:52.667Z,99.01
2022-12-05T19:06:23.742Z,98.94
2022-12-05T19:08:54.580Z,98.29
2022-12-05T19:11:23.137Z,98.24
2022-12-05T19:13:51.185Z,98.30
2022-12-05T19:16:19.444Z,98.55
2022-12-05T19:18:47.987Z,98.35
2022-12-05T19:21:16.194Z,99.04
2022-12-05T19:23:45.648Z,99.04
2022-12-05T19:26:13.781Z,99.47
2022-12-05T19:28:41.931Z,99.41
2022-12-05T19:31:11.562Z,98.83
2022-12-05T19:33:40.926Z,99.32
2022-12-05T19:36:11.571Z,98.53
2022-12-05T19:38:40.766Z,98.51
2022-12-05T19:41:12.384Z,98.93
2022-12-05T19:43:40.897Z,98.32
2022-12-05T19:46:11.431Z,98.42
2022-12-05T19:48:39.508Z,98.68
2022-12-05T19:51:07.926Z,98.10
2022-12-05T19:53:38.245Z,97.90
2022-12-05T19:56:08.860Z,98.03
2022-12-05T19:58:39.066Z,97.83
2022-12-05T20:01:09.109Z,98.19
2022-12-05T20:03:37.304Z,98.53
2022-12-05T20:06:05.860Z,98.25
2022-12-05T20:08:34.081Z,97.91
2022-12-05T20:11:05.474Z,97.20
2022-12-05T20:13:49.179Z,97.43
2022-12-05T20:16:21.513Z,96.92
2022-12-05T20:18:50.577Z,96.94
2022-12-05T20:21:20.172Z,95.91
2022-12-05T20:23:48.295Z,96.13
2022-12-05T20:26:17.935Z,96.18
2022-12-05T20:28:46.410Z,96.65
2022-12-05T20:31:16.360Z,95.46
2022-12-05T20:33:46.460Z,95.68
2022-12-05T20:36:16.364Z,95.74
2022-12-05T20:38:44.785Z,96.65
2022-12-05T20:41:16.370Z,96.70
2022-12-05T20:43:44.654Z,96.31
2022-12-05T20:46:14.255Z,96.19
2022-12-05T20:48:42.388Z,95.90
2022-12-05T20:51:13.502Z,96.13
2022-12-05T20:53:43.209Z,96.52
2022-12-05T20:56:12.897Z,97.54
2022-12-05T20:58:42.046Z,97.88
2022-12-05T21:01:11.432Z,97.15
2022-12-05T21:03:41.720Z,97.15
2022-12-05T21:06:12.924Z,97.43
2022-12-05T21:08:41.532Z,97.21
2022-12-05T21:11:10.815Z,97.17
2022-12-05T21:13:40.104Z,96.37
2022-12-05T21:16:10.351Z,97.15
2022-12-05T21:18:38.493Z,97.27
2022-12-05T21:21:08.581Z,97.77
2022-12-05T21:23:38.086Z,97.47
2022-12-05T21:26:09.268Z,97.40
2022-12-05T21:28:37.434Z,97.92
2022-12-05T21:31:07.177Z,98.31
2022-12-05T21:33:35.223Z,97.82
2022-12-05T21:36:03.217Z,97.17
2022-12-05T21:38:31.260Z,96.99
2022-12-05T21:41:00.743Z,97.47
2022-12-05T21:43:29.304Z,96.66
2022-12-05T21:45:57.744Z,96.65
2022-12-05T21:48:26.036Z,96.54
2022-12-05T21:50:55.298Z,97.14
2022-12-05T21:53:23.777Z,96.32
2022-12-05T21:56:01.313Z,96.64
2022-12-05T21:58:29.513Z,97.13
2022-12-05T22:00:57.589Z,96.03
2022-12-05T22:03:25.599Z,96.55
2022-12-05T22:06:01.010Z,96.46
2022-12-05T22:08:29.967Z,96.32
2022-12-05T22:11:05.866Z,96.84
2022-12-05T22:13:34.105Z,95.81
2022-12-05T22:16:03.046Z,95.84
2022-12-05T22:18:31.753Z,96.65
2022-12-05T22:21:00.802Z,96.72
2022-12-05T22:23:29.334Z,96.41
2022-12-05T22:25:59.010Z,96.47
2022-12-05T22:28:29.062Z,95.76
2022-12-05T22:31:02.320Z,95.83
2022-12-05T22:33:31.666Z,95.91
2022-12-05T22:36:00.638Z,96.69
2022-12-05T22:38:30.887Z,95.74
2022-12-05T22:41:01.043Z,96.18
2022-12-05T22:43:31.865Z,96.36
2022-12-05T22:46:04.652Z,96.75
2022-12-05T22:48:33.061Z,97.03
2022-12-05T22:51:02.236Z,97.20
2022-12-05T22:53:30.773Z,96.96
2022-12-05T22:56:03.092Z,96.32
2022-12-05T22:58:32.892Z,96.66
2022-12-05T23:01:10.200Z,95.88
2022-12-05T23:03:38.379Z,95.67
2022-12-05T23:06:12.100Z,95.36
2022-12-05T23:08:41.503Z,96.81
2022-12-05T23:11:10.635Z,95.94
2022-12-05T23:13:40.511Z,95.83
2022-12-05T23:16:09.608Z,96.68
2022-12-05T23:18:46.856Z,97.00
2022-12-05T23:21:17.449Z,96.06
2022-12-05T23:23:45.950Z,95.92
2022-12-05T23:26:14.756Z,96.52
2022-12-05T23:28:45.010Z,96.25
2022-12-05T23:31:14.289Z,97.32
2022-12-05T23:33:42.650Z,96.77
2022-12-05T23:36:11.737Z,96.40
2022-12-05T23:38:41.039Z,96.46
2022-12-05T23:41:12.925Z,96.73
2022-12-05T23:43:41.622Z,96.76
2022-12-05T23:46:13.077Z,96.76
2022-12-05T23:48:41.380Z,96.14
2022-12-05T23:51:11.790Z,95.62
2022-12-05T23:53:41.527Z,95.88
2022-12-05T23:56:11.412Z,95.33
2022-12-05T23:58:40.077Z,96.04
